sensor_id;sensor_type;location;lat;lon;timestamp;P1;durP1;ratioP1;P2;durP2;ratioP2
45764;SDS011;31474;45.332;10.230;2023-11-19T00:02:11;22.10;;;13.80;;
45764;SDS011;31474;45.332;10.230;2023-11-19T00:04:37;21.35;;;13.57;;
45764;SDS011;31474;45.332;10.230;2023-11-19T00:07:06;29.40;;;15.77;;
45764;SDS011;31474;45.332;10.230;2023-11-19T00:09:35;23.20;;;14.35;;
45764;SDS011;31474;45.332;10.230;2023-11-19T00:12:05;27.15;;;14.65;;
45764;SDS011;31474;45.332;10.230;2023-11-19T00:14:31;23.10;;;14.10;;
45764;SDS011;31474;45.332;10.230;2023-11-19T00:16:57;27.30;;;15.65;;
45764;SDS011;31474;45.332;10.230;2023-11-19T00:19:23;32.00;;;17.40;;
45764;SDS011;31474;45.332;10.230;2023-11-19T00:21:48;28.58;;;16.88;;
45764;SDS011;31474;45.332;10.230;2023-11-19T00:24:14;31.63;;;17.45;;
45764;SDS011;31474;45.332;10.230;2023-11-19T00:26:41;34.42;;;18.33;;
45764;SDS011;31474;45.332;10.230;2023-11-19T00:29:07;27.65;;;16.85;;
45764;SDS011;31474;45.332;10.230;2023-11-19T00:31:33;31.17;;;17.25;;
45764;SDS011;31474;45.332;10.230;2023-11-19T00:33:59;26.00;;;16.83;;
45764;SDS011;31474;45.332;10.230;2023-11-19T00:36:24;33.42;;;16.40;;
45764;SDS011;31474;45.332;10.230;2023-11-19T00:38:50;25.92;;;16.27;;
45764;SDS011;31474;45.332;10.230;2023-11-19T00:41:17;26.90;;;16.35;;
45764;SDS011;31474;45.332;10.230;2023-11-19T00:43:43;29.77;;;15.88;;
45764;SDS011;31474;45.332;10.230;2023-11-19T00:46:09;27.30;;;16.02;;
45764;SDS011;31474;45.332;10.230;2023-11-19T00:48:36;27.25;;;16.10;;
45764;SDS011;31474;45.332;10.230;2023-11-19T00:51:02;24.15;;;15.13;;
45764;SDS011;31474;45.332;10.230;2023-11-19T00:53:29;27.02;;;16.38;;
45764;SDS011;31474;45.332;10.230;2023-11-19T00:55:55;23.83;;;14.82;;
45764;SDS011;31474;45.332;10.230;2023-11-19T00:58:21;25.38;;;16.23;;
45764;SDS011;31474;45.332;10.230;2023-11-19T01:00:47;28.17;;;15.93;;
45764;SDS011;31474;45.332;10.230;2023-11-19T01:03:12;28.00;;;17.40;;
45764;SDS011;31474;45.332;10.230;2023-11-19T01:05:39;22.05;;;16.40;;
45764;SDS011;31474;45.332;10.230;2023-11-19T01:08:06;27.02;;;14.77;;
45764;SDS011;31474;45.332;10.230;2023-11-19T01:10:31;26.52;;;15.35;;
45764;SDS011;31474;45.332;10.230;2023-11-19T01:12:57;23.20;;;15.00;;
45764;SDS011;31474;45.332;10.230;2023-11-19T01:15:23;22.85;;;14.23;;
45764;SDS011;31474;45.332;10.230;2023-11-19T01:17:49;26.77;;;13.63;;
45764;SDS011;31474;45.332;10.230;2023-11-19T01:20:14;28.98;;;15.43;;
45764;SDS011;31474;45.332;10.230;2023-11-19T01:22:40;24.50;;;14.60;;
45764;SDS011;31474;45.332;10.230;2023-11-19T01:25:06;24.30;;;14.68;;
45764;SDS011;31474;45.332;10.230;2023-11-19T01:27:32;22.67;;;14.57;;
45764;SDS011;31474;45.332;10.230;2023-11-19T01:30:01;22.75;;;14.02;;
45764;SDS011;31474;45.332;10.230;2023-11-19T01:32:34;20.92;;;13.80;;
45764;SDS011;31474;45.332;10.230;2023-11-19T01:35:01;20.92;;;13.25;;
45764;SDS011;31474;45.332;10.230;2023-11-19T01:37:27;23.27;;;15.40;;
45764;SDS011;31474;45.332;10.230;2023-11-19T01:39:53;19.52;;;13.52;;
45764;SDS011;31474;45.332;10.230;2023-11-19T01:42:19;21.02;;;14.45;;
45764;SDS011;31474;45.332;10.230;2023-11-19T01:44:54;20.08;;;13.10;;
45764;SDS011;31474;45.332;10.230;2023-11-19T01:47:25;20.35;;;12.95;;
45764;SDS011;31474;45.332;10.230;2023-11-19T01:49:51;20.30;;;13.27;;
45764;SDS011;31474;45.332;10.230;2023-11-19T01:52:18;21.27;;;14.52;;
45764;SDS011;31474;45.332;10.230;2023-11-19T01:54:44;16.50;;;12.77;;
45764;SDS011;31474;45.332;10.230;2023-11-19T01:57:10;28.92;;;14.60;;
45764;SDS011;31474;45.332;10.230;2023-11-19T01:59:36;25.23;;;14.50;;
45764;SDS011;31474;45.332;10.230;2023-11-19T02:02:03;23.17;;;13.88;;
45764;SDS011;31474;45.332;10.230;2023-11-19T02:04:30;21.52;;;13.45;;
45764;SDS011;31474;45.332;10.230;2023-11-19T02:06:56;20.73;;;12.63;;
45764;SDS011;31474;45.332;10.230;2023-11-19T02:09:24;18.98;;;12.73;;
45764;SDS011;31474;45.332;10.230;2023-11-19T02:11:49;22.50;;;13.55;;
45764;SDS011;31474;45.332;10.230;2023-11-19T02:14:16;24.08;;;14.38;;
45764;SDS011;31474;45.332;10.230;2023-11-19T02:16:42;22.15;;;13.90;;
45764;SDS011;31474;45.332;10.230;2023-11-19T02:19:09;20.45;;;13.45;;
45764;SDS011;31474;45.332;10.230;2023-11-19T02:21:36;23.10;;;14.20;;
45764;SDS011;31474;45.332;10.230;2023-11-19T02:24:03;19.92;;;12.75;;
45764;SDS011;31474;45.332;10.230;2023-11-19T02:27:15;18.77;;;12.82;;
45764;SDS011;31474;45.332;10.230;2023-11-19T02:29:26;17.30;;;12.68;;
45764;SDS011;31474;45.332;10.230;2023-11-19T02:31:52;18.67;;;12.75;;
45764;SDS011;31474;45.332;10.230;2023-11-19T02:34:19;27.55;;;13.68;;
45764;SDS011;31474;45.332;10.230;2023-11-19T02:36:46;24.45;;;13.27;;
45764;SDS011;31474;45.332;10.230;2023-11-19T02:39:12;24.25;;;12.93;;
45764;SDS011;31474;45.332;10.230;2023-11-19T02:41:38;18.73;;;11.52;;
45764;SDS011;31474;45.332;10.230;2023-11-19T02:44:05;17.50;;;12.25;;
45764;SDS011;31474;45.332;10.230;2023-11-19T02:46:31;20.10;;;12.05;;
45764;SDS011;31474;45.332;10.230;2023-11-19T02:48:57;25.30;;;12.75;;
45764;SDS011;31474;45.332;10.230;2023-11-19T02:51:23;21.38;;;13.00;;
45764;SDS011;31474;45.332;10.230;2023-11-19T02:53:48;36.80;;;14.10;;
45764;SDS011;31474;45.332;10.230;2023-11-19T02:56:14;14.52;;;11.70;;
45764;SDS011;31474;45.332;10.230;2023-11-19T02:58:45;19.73;;;12.60;;
45764;SDS011;31474;45.332;10.230;2023-11-19T03:01:11;19.75;;;12.13;;
45764;SDS011;31474;45.332;10.230;2023-11-19T03:03:47;22.30;;;12.43;;
45764;SDS011;31474;45.332;10.230;2023-11-19T03:06:18;21.35;;;12.82;;
45764;SDS011;31474;45.332;10.230;2023-11-19T03:08:45;19.63;;;12.65;;
45764;SDS011;31474;45.332;10.230;2023-11-19T03:11:10;18.90;;;11.88;;
45764;SDS011;31474;45.332;10.230;2023-11-19T03:13:36;19.98;;;12.40;;
45764;SDS011;31474;45.332;10.230;2023-11-19T03:16:01;20.20;;;12.48;;
45764;SDS011;31474;45.332;10.230;2023-11-19T03:18:27;17.05;;;12.40;;
45764;SDS011;31474;45.332;10.230;2023-11-19T03:20:53;19.08;;;12.65;;
45764;SDS011;31474;45.332;10.230;2023-11-19T03:23:19;19.52;;;12.43;;
45764;SDS011;31474;45.332;10.230;2023-11-19T03:25:44;19.00;;;12.70;;
45764;SDS011;31474;45.332;10.230;2023-11-19T03:28:10;18.98;;;11.77;;
45764;SDS011;31474;45.332;10.230;2023-11-19T03:30:36;18.83;;;12.73;;
45764;SDS011;31474;45.332;10.230;2023-11-19T03:33:02;18.10;;;12.32;;
45764;SDS011;31474;45.332;10.230;2023-11-19T03:35:28;19.98;;;12.30;;
45764;SDS011;31474;45.332;10.230;2023-11-19T03:37:54;16.73;;;11.63;;
45764;SDS011;31474;45.332;10.230;2023-11-19T03:40:19;21.00;;;12.57;;
45764;SDS011;31474;45.332;10.230;2023-11-19T03:42:48;18.50;;;12.60;;
45764;SDS011;31474;45.332;10.230;2023-11-19T03:45:13;18.08;;;12.20;;
45764;SDS011;31474;45.332;10.230;2023-11-19T03:47:40;18.45;;;12.45;;
45764;SDS011;31474;45.332;10.230;2023-11-19T03:50:06;22.95;;;13.52;;
45764;SDS011;31474;45.332;10.230;2023-11-19T03:52:33;19.80;;;13.00;;
45764;SDS011;31474;45.332;10.230;2023-11-19T03:54:59;18.45;;;12.43;;
45764;SDS011;31474;45.332;10.230;2023-11-19T03:57:25;17.02;;;12.25;;
45764;SDS011;31474;45.332;10.230;2023-11-19T03:59:52;18.88;;;11.75;;
45764;SDS011;31474;45.332;10.230;2023-11-19T04:02:17;14.55;;;10.55;;
45764;SDS011;31474;45.332;10.230;2023-11-19T04:04:43;21.15;;;13.32;;
45764;SDS011;31474;45.332;10.230;2023-11-19T04:07:08;19.20;;;12.23;;
45764;SDS011;31474;45.332;10.230;2023-11-19T04:09:34;17.00;;;11.73;;
45764;SDS011;31474;45.332;10.230;2023-11-19T04:12:01;20.23;;;12.18;;
45764;SDS011;31474;45.332;10.230;2023-11-19T04:14:27;17.15;;;11.48;;
45764;SDS011;31474;45.332;10.230;2023-11-19T04:16:52;14.65;;;11.30;;
45764;SDS011;31474;45.332;10.230;2023-11-19T04:19:18;18.80;;;11.32;;
45764;SDS011;31474;45.332;10.230;2023-11-19T04:21:44;18.77;;;11.20;;
45764;SDS011;31474;45.332;10.230;2023-11-19T04:24:11;17.02;;;11.68;;
45764;SDS011;31474;45.332;10.230;2023-11-19T04:26:41;23.50;;;11.98;;
45764;SDS011;31474;45.332;10.230;2023-11-19T04:29:11;16.60;;;10.07;;
45764;SDS011;31474;45.332;10.230;2023-11-19T04:31:38;14.55;;;10.95;;
45764;SDS011;31474;45.332;10.230;2023-11-19T04:34:04;19.13;;;11.30;;
45764;SDS011;31474;45.332;10.230;2023-11-19T04:36:31;17.83;;;11.68;;
45764;SDS011;31474;45.332;10.230;2023-11-19T04:38:58;19.67;;;11.50;;
45764;SDS011;31474;45.332;10.230;2023-11-19T04:41:25;16.67;;;10.75;;
45764;SDS011;31474;45.332;10.230;2023-11-19T04:43:52;12.43;;;10.07;;
45764;SDS011;31474;45.332;10.230;2023-11-19T04:46:21;15.63;;;11.02;;
45764;SDS011;31474;45.332;10.230;2023-11-19T04:48:48;15.27;;;10.48;;
45764;SDS011;31474;45.332;10.230;2023-11-19T04:51:14;21.98;;;11.45;;
45764;SDS011;31474;45.332;10.230;2023-11-19T04:53:40;16.60;;;10.80;;
45764;SDS011;31474;45.332;10.230;2023-11-19T04:56:09;18.85;;;12.23;;
45764;SDS011;31474;45.332;10.230;2023-11-19T04:58:35;14.15;;;10.23;;
45764;SDS011;31474;45.332;10.230;2023-11-19T05:01:02;16.50;;;10.07;;
45764;SDS011;31474;45.332;10.230;2023-11-19T05:03:28;15.48;;;10.65;;
45764;SDS011;31474;45.332;10.230;2023-11-19T05:05:55;15.70;;;9.82;;
45764;SDS011;31474;45.332;10.230;2023-11-19T05:08:21;14.80;;;10.77;;
45764;SDS011;31474;45.332;10.230;2023-11-19T05:10:46;17.77;;;10.63;;
45764;SDS011;31474;45.332;10.230;2023-11-19T05:13:12;12.18;;;9.57;;
45764;SDS011;31474;45.332;10.230;2023-11-19T05:15:37;13.63;;;10.20;;
45764;SDS011;31474;45.332;10.230;2023-11-19T05:18:03;16.83;;;9.68;;
45764;SDS011;31474;45.332;10.230;2023-11-19T05:20:30;15.82;;;10.07;;
45764;SDS011;31474;45.332;10.230;2023-11-19T05:22:56;15.63;;;10.65;;
45764;SDS011;31474;45.332;10.230;2023-11-19T05:25:21;16.48;;;11.05;;
45764;SDS011;31474;45.332;10.230;2023-11-19T05:27:47;13.00;;;9.82;;
45764;SDS011;31474;45.332;10.230;2023-11-19T05:30:13;15.60;;;10.60;;
45764;SDS011;31474;45.332;10.230;2023-11-19T05:32:38;14.43;;;10.18;;
45764;SDS011;31474;45.332;10.230;2023-11-19T05:35:04;14.95;;;10.52;;
45764;SDS011;31474;45.332;10.230;2023-11-19T05:37:30;13.10;;;10.07;;
45764;SDS011;31474;45.332;10.230;2023-11-19T05:39:56;13.77;;;10.13;;
45764;SDS011;31474;45.332;10.230;2023-11-19T05:42:22;17.67;;;10.00;;
45764;SDS011;31474;45.332;10.230;2023-11-19T05:44:48;15.50;;;10.02;;
45764;SDS011;31474;45.332;10.230;2023-11-19T05:47:14;17.95;;;9.38;;
45764;SDS011;31474;45.332;10.230;2023-11-19T05:49:40;16.67;;;10.68;;
45764;SDS011;31474;45.332;10.230;2023-11-19T05:52:06;15.18;;;10.27;;
45764;SDS011;31474;45.332;10.230;2023-11-19T05:54:32;15.27;;;9.88;;
45764;SDS011;31474;45.332;10.230;2023-11-19T05:57:03;15.70;;;10.18;;
45764;SDS011;31474;45.332;10.230;2023-11-19T05:59:34;13.30;;;9.95;;
45764;SDS011;31474;45.332;10.230;2023-11-19T06:02:01;13.77;;;9.63;;
45764;SDS011;31474;45.332;10.230;2023-11-19T06:04:27;14.30;;;9.82;;
45764;SDS011;31474;45.332;10.230;2023-11-19T06:06:53;15.30;;;10.95;;
45764;SDS011;31474;45.332;10.230;2023-11-19T06:09:20;14.13;;;9.15;;
45764;SDS011;31474;45.332;10.230;2023-11-19T06:11:48;12.48;;;9.45;;
45764;SDS011;31474;45.332;10.230;2023-11-19T06:14:14;13.05;;;8.93;;
45764;SDS011;31474;45.332;10.230;2023-11-19T06:16:40;17.73;;;10.07;;
45764;SDS011;31474;45.332;10.230;2023-11-19T06:19:05;16.75;;;9.73;;
45764;SDS011;31474;45.332;10.230;2023-11-19T06:21:31;15.13;;;10.40;;
45764;SDS011;31474;45.332;10.230;2023-11-19T06:23:56;14.98;;;9.90;;
45764;SDS011;31474;45.332;10.230;2023-11-19T06:26:24;14.82;;;9.85;;
45764;SDS011;31474;45.332;10.230;2023-11-19T06:28:49;15.25;;;9.40;;
45764;SDS011;31474;45.332;10.230;2023-11-19T06:31:15;15.25;;;10.32;;
45764;SDS011;31474;45.332;10.230;2023-11-19T06:33:41;16.02;;;10.40;;
45764;SDS011;31474;45.332;10.230;2023-11-19T06:36:07;15.45;;;10.00;;
45764;SDS011;31474;45.332;10.230;2023-11-19T06:38:34;16.48;;;9.82;;
45764;SDS011;31474;45.332;10.230;2023-11-19T06:40:59;15.45;;;10.20;;
45764;SDS011;31474;45.332;10.230;2023-11-19T06:43:26;14.38;;;9.90;;
45764;SDS011;31474;45.332;10.230;2023-11-19T06:45:53;11.15;;;8.65;;
45764;SDS011;31474;45.332;10.230;2023-11-19T06:48:19;19.27;;;10.18;;
45764;SDS011;31474;45.332;10.230;2023-11-19T06:50:44;18.77;;;10.57;;
45764;SDS011;31474;45.332;10.230;2023-11-19T06:53:10;13.50;;;9.60;;
45764;SDS011;31474;45.332;10.230;2023-11-19T06:55:36;13.70;;;9.40;;
45764;SDS011;31474;45.332;10.230;2023-11-19T06:58:02;17.05;;;10.10;;
45764;SDS011;31474;45.332;10.230;2023-11-19T07:00:28;14.77;;;9.93;;
45764;SDS011;31474;45.332;10.230;2023-11-19T07:02:54;15.60;;;10.35;;
45764;SDS011;31474;45.332;10.230;2023-11-19T07:05:20;16.27;;;10.10;;
45764;SDS011;31474;45.332;10.230;2023-11-19T07:07:46;13.48;;;10.05;;
45764;SDS011;31474;45.332;10.230;2023-11-19T07:10:12;15.23;;;10.93;;
45764;SDS011;31474;45.332;10.230;2023-11-19T07:12:37;17.38;;;10.45;;
45764;SDS011;31474;45.332;10.230;2023-11-19T07:15:04;19.38;;;10.02;;
45764;SDS011;31474;45.332;10.230;2023-11-19T07:17:33;13.65;;;10.07;;
45764;SDS011;31474;45.332;10.230;2023-11-19T07:20:00;16.15;;;10.20;;
45764;SDS011;31474;45.332;10.230;2023-11-19T07:22:25;17.63;;;11.23;;
45764;SDS011;31474;45.332;10.230;2023-11-19T07:24:52;16.58;;;11.18;;
45764;SDS011;31474;45.332;10.230;2023-11-19T07:27:18;15.00;;;10.90;;
45764;SDS011;31474;45.332;10.230;2023-11-19T07:29:44;19.92;;;10.93;;
45764;SDS011;31474;45.332;10.230;2023-11-19T07:32:10;15.48;;;11.50;;
45764;SDS011;31474;45.332;10.230;2023-11-19T07:34:36;18.13;;;12.90;;
45764;SDS011;31474;45.332;10.230;2023-11-19T07:37:02;21.80;;;12.20;;
45764;SDS011;31474;45.332;10.230;2023-11-19T07:39:28;17.17;;;12.32;;
45764;SDS011;31474;45.332;10.230;2023-11-19T07:41:54;19.75;;;11.70;;
45764;SDS011;31474;45.332;10.230;2023-11-19T07:44:20;28.13;;;15.32;;
45764;SDS011;31474;45.332;10.230;2023-11-19T07:46:46;28.02;;;14.52;;
45764;SDS011;31474;45.332;10.230;2023-11-19T07:49:13;31.98;;;15.82;;
45764;SDS011;31474;45.332;10.230;2023-11-19T07:51:39;42.35;;;18.90;;
45764;SDS011;31474;45.332;10.230;2023-11-19T07:54:04;53.03;;;21.80;;
45764;SDS011;31474;45.332;10.230;2023-11-19T07:56:31;29.27;;;14.18;;
45764;SDS011;31474;45.332;10.230;2023-11-19T07:58:59;18.75;;;11.13;;
45764;SDS011;31474;45.332;10.230;2023-11-19T08:01:25;23.30;;;13.65;;
45764;SDS011;31474;45.332;10.230;2023-11-19T08:03:50;17.83;;;10.50;;
45764;SDS011;31474;45.332;10.230;2023-11-19T08:06:16;17.10;;;11.20;;
45764;SDS011;31474;45.332;10.230;2023-11-19T08:08:42;17.77;;;10.77;;
45764;SDS011;31474;45.332;10.230;2023-11-19T08:11:08;16.80;;;9.27;;
45764;SDS011;31474;45.332;10.230;2023-11-19T08:13:33;22.80;;;12.40;;
45764;SDS011;31474;45.332;10.230;2023-11-19T08:15:59;22.65;;;12.70;;
45764;SDS011;31474;45.332;10.230;2023-11-19T08:18:24;23.52;;;12.15;;
45764;SDS011;31474;45.332;10.230;2023-11-19T08:20:50;16.70;;;10.20;;
45764;SDS011;31474;45.332;10.230;2023-11-19T08:23:18;12.88;;;9.13;;
45764;SDS011;31474;45.332;10.230;2023-11-19T08:25:45;10.93;;;8.88;;
45764;SDS011;31474;45.332;10.230;2023-11-19T08:28:10;14.52;;;8.23;;
45764;SDS011;31474;45.332;10.230;2023-11-19T08:30:36;18.80;;;10.70;;
45764;SDS011;31474;45.332;10.230;2023-11-19T08:33:02;10.93;;;7.93;;
45764;SDS011;31474;45.332;10.230;2023-11-19T08:35:28;12.85;;;8.65;;
45764;SDS011;31474;45.332;10.230;2023-11-19T08:37:54;16.67;;;10.00;;
45764;SDS011;31474;45.332;10.230;2023-11-19T08:40:20;17.00;;;10.75;;
45764;SDS011;31474;45.332;10.230;2023-11-19T08:42:46;13.93;;;9.30;;
45764;SDS011;31474;45.332;10.230;2023-11-19T08:45:11;15.52;;;10.43;;
45764;SDS011;31474;45.332;10.230;2023-11-19T08:47:37;16.30;;;10.35;;
45764;SDS011;31474;45.332;10.230;2023-11-19T08:50:05;17.73;;;10.05;;
45764;SDS011;31474;45.332;10.230;2023-11-19T08:52:31;14.95;;;10.02;;
45764;SDS011;31474;45.332;10.230;2023-11-19T08:54:57;18.02;;;9.43;;
45764;SDS011;31474;45.332;10.230;2023-11-19T08:57:22;12.95;;;10.00;;
45764;SDS011;31474;45.332;10.230;2023-11-19T08:59:48;16.27;;;9.50;;
45764;SDS011;31474;45.332;10.230;2023-11-19T09:02:14;14.57;;;9.63;;
45764;SDS011;31474;45.332;10.230;2023-11-19T09:04:41;22.95;;;11.48;;
45764;SDS011;31474;45.332;10.230;2023-11-19T09:07:07;15.55;;;10.48;;
45764;SDS011;31474;45.332;10.230;2023-11-19T09:09:34;17.42;;;10.52;;
45764;SDS011;31474;45.332;10.230;2023-11-19T09:12:01;19.55;;;11.60;;
45764;SDS011;31474;45.332;10.230;2023-11-19T09:14:28;15.05;;;10.90;;
45764;SDS011;31474;45.332;10.230;2023-11-19T09:16:55;14.30;;;9.80;;
45764;SDS011;31474;45.332;10.230;2023-11-19T09:19:21;13.80;;;10.05;;
45764;SDS011;31474;45.332;10.230;2023-11-19T09:21:47;15.82;;;10.50;;
45764;SDS011;31474;45.332;10.230;2023-11-19T09:24:13;18.10;;;9.65;;
45764;SDS011;31474;45.332;10.230;2023-11-19T09:26:38;12.73;;;9.57;;
45764;SDS011;31474;45.332;10.230;2023-11-19T09:29:06;13.52;;;9.30;;
45764;SDS011;31474;45.332;10.230;2023-11-19T09:31:35;16.23;;;8.85;;
45764;SDS011;31474;45.332;10.230;2023-11-19T09:34:03;13.32;;;9.75;;
45764;SDS011;31474;45.332;10.230;2023-11-19T09:36:28;16.20;;;10.95;;
45764;SDS011;31474;45.332;10.230;2023-11-19T09:38:54;13.02;;;9.57;;
45764;SDS011;31474;45.332;10.230;2023-11-19T09:41:20;16.85;;;10.43;;
45764;SDS011;31474;45.332;10.230;2023-11-19T09:43:45;13.00;;;9.82;;
45764;SDS011;31474;45.332;10.230;2023-11-19T09:46:15;14.55;;;10.10;;
45764;SDS011;31474;45.332;10.230;2023-11-19T09:48:41;13.75;;;10.07;;
45764;SDS011;31474;45.332;10.230;2023-11-19T09:51:08;12.23;;;9.48;;
45764;SDS011;31474;45.332;10.230;2023-11-19T09:53:35;11.50;;;9.40;;
45764;SDS011;31474;45.332;10.230;2023-11-19T09:56:02;15.75;;;9.23;;
45764;SDS011;31474;45.332;10.230;2023-11-19T09:58:29;15.95;;;9.23;;
45764;SDS011;31474;45.332;10.230;2023-11-19T10:00:58;13.35;;;8.20;;
45764;SDS011;31474;45.332;10.230;2023-11-19T10:03:25;13.02;;;8.52;;
45764;SDS011;31474;45.332;10.230;2023-11-19T10:05:55;12.57;;;9.45;;
45764;SDS011;31474;45.332;10.230;2023-11-19T10:08:21;12.85;;;8.77;;
45764;SDS011;31474;45.332;10.230;2023-11-19T10:10:48;13.52;;;9.60;;
45764;SDS011;31474;45.332;10.230;2023-11-19T10:13:14;11.77;;;8.45;;
45764;SDS011;31474;45.332;10.230;2023-11-19T10:15:40;11.25;;;8.30;;
45764;SDS011;31474;45.332;10.230;2023-11-19T10:18:06;13.35;;;7.90;;
45764;SDS011;31474;45.332;10.230;2023-11-19T10:20:35;8.77;;;6.32;;
45764;SDS011;31474;45.332;10.230;2023-11-19T10:23:02;10.43;;;7.88;;
45764;SDS011;31474;45.332;10.230;2023-11-19T10:25:28;10.82;;;8.43;;
45764;SDS011;31474;45.332;10.230;2023-11-19T10:27:55;10.30;;;7.50;;
45764;SDS011;31474;45.332;10.230;2023-11-19T10:30:24;12.95;;;6.88;;
45764;SDS011;31474;45.332;10.230;2023-11-19T10:35:33;12.48;;;7.57;;
45764;SDS011;31474;45.332;10.230;2023-11-19T10:38:00;12.20;;;8.32;;
45764;SDS011;31474;45.332;10.230;2023-11-19T10:40:40;12.73;;;8.40;;
45764;SDS011;31474;45.332;10.230;2023-11-19T10:43:06;8.27;;;6.38;;
45764;SDS011;31474;45.332;10.230;2023-11-19T10:45:33;11.10;;;8.30;;
45764;SDS011;31474;45.332;10.230;2023-11-19T10:48:02;14.65;;;8.25;;
45764;SDS011;31474;45.332;10.230;2023-11-19T10:50:41;14.18;;;8.88;;
45764;SDS011;31474;45.332;10.230;2023-11-19T10:53:09;15.05;;;8.60;;
45764;SDS011;31474;45.332;10.230;2023-11-19T10:55:40;12.23;;;7.95;;
45764;SDS011;31474;45.332;10.230;2023-11-19T10:58:09;12.48;;;8.40;;
45764;SDS011;31474;45.332;10.230;2023-11-19T11:00:45;11.48;;;7.60;;
45764;SDS011;31474;45.332;10.230;2023-11-19T11:03:23;13.02;;;8.48;;
45764;SDS011;31474;45.332;10.230;2023-11-19T11:05:51;9.68;;;7.50;;
45764;SDS011;31474;45.332;10.230;2023-11-19T11:08:18;11.65;;;8.98;;
45764;SDS011;31474;45.332;10.230;2023-11-19T11:10:48;9.32;;;7.35;;
45764;SDS011;31474;45.332;10.230;2023-11-19T11:13:19;8.65;;;7.18;;
45764;SDS011;31474;45.332;10.230;2023-11-19T11:15:47;12.07;;;8.73;;
45764;SDS011;31474;45.332;10.230;2023-11-19T11:18:14;10.90;;;7.22;;
45764;SDS011;31474;45.332;10.230;2023-11-19T11:20:40;10.30;;;7.20;;
45764;SDS011;31474;45.332;10.230;2023-11-19T11:31:25;12.48;;;8.68;;
45764;SDS011;31474;45.332;10.230;2023-11-19T11:36:54;12.18;;;7.97;;
45764;SDS011;31474;45.332;10.230;2023-11-19T11:39:35;10.30;;;7.72;;
45764;SDS011;31474;45.332;10.230;2023-11-19T11:50:17;13.13;;;9.13;;
45764;SDS011;31474;45.332;10.230;2023-11-19T11:57:53;15.00;;;9.15;;
45764;SDS011;31474;45.332;10.230;2023-11-19T12:02:55;11.82;;;9.38;;
45764;SDS011;31474;45.332;10.230;2023-11-19T12:05:24;10.73;;;8.93;;
45764;SDS011;31474;45.332;10.230;2023-11-19T12:08:00;16.48;;;10.55;;
45764;SDS011;31474;45.332;10.230;2023-11-19T12:10:31;13.60;;;10.75;;
45764;SDS011;31474;45.332;10.230;2023-11-19T12:13:03;14.30;;;10.73;;
45764;SDS011;31474;45.332;10.230;2023-11-19T12:15:32;14.77;;;11.68;;
45764;SDS011;31474;45.332;10.230;2023-11-19T12:17:57;14.57;;;12.80;;
45764;SDS011;31474;45.332;10.230;2023-11-19T12:20:24;15.65;;;12.57;;
45764;SDS011;31474;45.332;10.230;2023-11-19T12:22:50;14.48;;;11.50;;
45764;SDS011;31474;45.332;10.230;2023-11-19T12:25:17;13.40;;;12.00;;
45764;SDS011;31474;45.332;10.230;2023-11-19T12:27:48;13.55;;;11.48;;
45764;SDS011;31474;45.332;10.230;2023-11-19T12:30:17;16.08;;;12.40;;
45764;SDS011;31474;45.332;10.230;2023-11-19T12:32:50;13.52;;;10.80;;
45764;SDS011;31474;45.332;10.230;2023-11-19T12:35:18;12.68;;;10.90;;
45764;SDS011;31474;45.332;10.230;2023-11-19T12:40:17;13.70;;;11.00;;
45764;SDS011;31474;45.332;10.230;2023-11-19T12:42:54;14.38;;;10.38;;
45764;SDS011;31474;45.332;10.230;2023-11-19T12:45:20;13.32;;;10.95;;
45764;SDS011;31474;45.332;10.230;2023-11-19T12:47:48;15.13;;;10.55;;
45764;SDS011;31474;45.332;10.230;2023-11-19T12:50:15;13.65;;;11.77;;
45764;SDS011;31474;45.332;10.230;2023-11-19T12:52:43;12.88;;;11.43;;
45764;SDS011;31474;45.332;10.230;2023-11-19T12:55:24;17.45;;;12.85;;
45764;SDS011;31474;45.332;10.230;2023-11-19T12:57:54;15.35;;;11.85;;
45764;SDS011;31474;45.332;10.230;2023-11-19T13:00:23;13.77;;;10.52;;
45764;SDS011;31474;45.332;10.230;2023-11-19T13:05:30;13.68;;;11.90;;
45764;SDS011;31474;45.332;10.230;2023-11-19T13:08:01;15.68;;;11.00;;
45764;SDS011;31474;45.332;10.230;2023-11-19T13:13:04;13.63;;;9.98;;
45764;SDS011;31474;45.332;10.230;2023-11-19T13:15:31;14.05;;;11.38;;
45764;SDS011;31474;45.332;10.230;2023-11-19T13:17:58;12.23;;;9.70;;
45764;SDS011;31474;45.332;10.230;2023-11-19T13:20:24;13.68;;;11.00;;
45764;SDS011;31474;45.332;10.230;2023-11-19T13:22:59;12.75;;;10.07;;
45764;SDS011;31474;45.332;10.230;2023-11-19T13:25:26;12.63;;;9.57;;
45764;SDS011;31474;45.332;10.230;2023-11-19T13:27:53;12.48;;;9.93;;
45764;SDS011;31474;45.332;10.230;2023-11-19T13:30:19;17.50;;;12.88;;
45764;SDS011;31474;45.332;10.230;2023-11-19T13:32:47;11.82;;;10.27;;
45764;SDS011;31474;45.332;10.230;2023-11-19T13:35:13;11.90;;;10.40;;
45764;SDS011;31474;45.332;10.230;2023-11-19T13:37:39;12.07;;;10.55;;
45764;SDS011;31474;45.332;10.230;2023-11-19T13:40:06;19.42;;;10.63;;
45764;SDS011;31474;45.332;10.230;2023-11-19T13:42:34;12.45;;;10.82;;
45764;SDS011;31474;45.332;10.230;2023-11-19T13:45:15;14.63;;;11.48;;
45764;SDS011;31474;45.332;10.230;2023-11-19T13:47:44;17.77;;;12.75;;
45764;SDS011;31474;45.332;10.230;2023-11-19T13:50:11;15.27;;;11.50;;
45764;SDS011;31474;45.332;10.230;2023-11-19T13:52:40;13.70;;;10.77;;
45764;SDS011;31474;45.332;10.230;2023-11-19T13:55:09;11.50;;;9.73;;
45764;SDS011;31474;45.332;10.230;2023-11-19T13:57:39;13.52;;;10.75;;
45764;SDS011;31474;45.332;10.230;2023-11-19T14:00:06;13.52;;;10.77;;
45764;SDS011;31474;45.332;10.230;2023-11-19T14:02:47;11.88;;;10.05;;
45764;SDS011;31474;45.332;10.230;2023-11-19T14:05:13;16.07;;;9.60;;
45764;SDS011;31474;45.332;10.230;2023-11-19T14:07:40;17.95;;;12.70;;
45764;SDS011;31474;45.332;10.230;2023-11-19T14:10:06;10.38;;;8.90;;
45764;SDS011;31474;45.332;10.230;2023-11-19T14:12:38;15.07;;;10.55;;
45764;SDS011;31474;45.332;10.230;2023-11-19T14:15:05;14.52;;;9.77;;
45764;SDS011;31474;45.332;10.230;2023-11-19T14:17:31;11.05;;;9.20;;
45764;SDS011;31474;45.332;10.230;2023-11-19T14:19:57;11.95;;;9.25;;
45764;SDS011;31474;45.332;10.230;2023-11-19T14:22:23;11.73;;;9.43;;
45764;SDS011;31474;45.332;10.230;2023-11-19T14:24:49;12.18;;;8.52;;
45764;SDS011;31474;45.332;10.230;2023-11-19T14:27:15;16.25;;;10.73;;
45764;SDS011;31474;45.332;10.230;2023-11-19T14:29:42;10.70;;;8.10;;
45764;SDS011;31474;45.332;10.230;2023-11-19T14:32:09;10.13;;;8.80;;
45764;SDS011;31474;45.332;10.230;2023-11-19T14:34:35;14.70;;;9.45;;
45764;SDS011;31474;45.332;10.230;2023-11-19T14:37:01;17.17;;;10.52;;
45764;SDS011;31474;45.332;10.230;2023-11-19T14:39:27;12.65;;;9.35;;
45764;SDS011;31474;45.332;10.230;2023-11-19T14:41:54;12.00;;;9.25;;
45764;SDS011;31474;45.332;10.230;2023-11-19T14:44:23;13.93;;;9.57;;
45764;SDS011;31474;45.332;10.230;2023-11-19T14:46:49;15.52;;;10.65;;
45764;SDS011;31474;45.332;10.230;2023-11-19T14:49:14;13.30;;;10.20;;
45764;SDS011;31474;45.332;10.230;2023-11-19T14:51:40;17.98;;;10.90;;